sensor_id;sensor_type;location;lat;lon;timestamp;P1;durP1;ratioP1;P2;durP2;ratioP2
17947;SDS011;9099;47.958;11.366;2023-08-20T00:01:06;3.63;;;3.33;;
17947;SDS011;9099;47.958;11.366;2023-08-20T00:03:36;4.20;;;3.25;;
17947;SDS011;9099;47.958;11.366;2023-08-20T00:06:04;4.75;;;3.25;;
17947;SDS011;9099;47.958;11.366;2023-08-20T00:08:33;3.47;;;3.22;;
17947;SDS011;9099;47.958;11.366;2023-08-20T00:11:01;4.22;;;3.20;;
17947;SDS011;9099;47.958;11.366;2023-08-20T00:13:29;4.03;;;3.03;;
17947;SDS011;9099;47.958;11.366;2023-08-20T00:15:56;4.60;;;3.38;;
17947;SDS011;9099;47.958;11.366;2023-08-20T00:18:24;4.78;;;3.40;;
17947;SDS011;9099;47.958;11.366;2023-08-20T00:20:51;3.70;;;2.90;;
17947;SDS011;9099;47.958;11.366;2023-08-20T00:23:19;3.75;;;3.20;;
17947;SDS011;9099;47.958;11.366;2023-08-20T00:25:48;3.50;;;2.95;;
17947;SDS011;9099;47.958;11.366;2023-08-20T00:28:15;3.60;;;3.30;;
17947;SDS011;9099;47.958;11.366;2023-08-20T00:30:42;3.80;;;3.00;;
17947;SDS011;9099;47.958;11.366;2023-08-20T00:33:10;4.70;;;3.50;;
17947;SDS011;9099;47.958;11.366;2023-08-20T00:35:37;3.53;;;2.65;;
17947;SDS011;9099;47.958;11.366;2023-08-20T00:38:04;3.88;;;3.58;;
17947;SDS011;9099;47.958;11.366;2023-08-20T00:40:31;3.67;;;2.92;;
17947;SDS011;9099;47.958;11.366;2023-08-20T00:42:59;5.53;;;3.13;;
17947;SDS011;9099;47.958;11.366;2023-08-20T00:45:26;3.53;;;3.08;;
17947;SDS011;9099;47.958;11.366;2023-08-20T00:47:53;3.50;;;3.20;;
17947;SDS011;9099;47.958;11.366;2023-08-20T00:50:20;3.55;;;3.22;;
17947;SDS011;9099;47.958;11.366;2023-08-20T00:52:47;3.50;;;3.20;;
17947;SDS011;9099;47.958;11.366;2023-08-20T00:55:14;4.13;;;3.40;;
17947;SDS011;9099;47.958;11.366;2023-08-20T00:57:41;4.85;;;3.13;;
17947;SDS011;9099;47.958;11.366;2023-08-20T01:00:10;4.20;;;3.80;;
17947;SDS011;9099;47.958;11.366;2023-08-20T01:02:38;3.33;;;3.10;;
17947;SDS011;9099;47.958;11.366;2023-08-20T01:05:07;4.22;;;3.42;;
17947;SDS011;9099;47.958;11.366;2023-08-20T01:07:39;3.50;;;3.20;;
17947;SDS011;9099;47.958;11.366;2023-08-20T01:10:18;3.38;;;3.08;;
17947;SDS011;9099;47.958;11.366;2023-08-20T01:12:49;5.03;;;3.20;;
17947;SDS011;9099;47.958;11.366;2023-08-20T01:15:19;3.72;;;3.35;;
17947;SDS011;9099;47.958;11.366;2023-08-20T01:17:48;4.78;;;3.53;;
17947;SDS011;9099;47.958;11.366;2023-08-20T01:20:15;4.00;;;3.30;;
17947;SDS011;9099;47.958;11.366;2023-08-20T01:25:45;3.97;;;3.30;;
17947;SDS011;9099;47.958;11.366;2023-08-20T01:28:22;4.10;;;3.35;;
17947;SDS011;9099;47.958;11.366;2023-08-20T01:30:51;4.40;;;3.17;;
17947;SDS011;9099;47.958;11.366;2023-08-20T01:33:20;4.55;;;3.35;;
17947;SDS011;9099;47.958;11.366;2023-08-20T01:35:47;3.15;;;2.85;;
17947;SDS011;9099;47.958;11.366;2023-08-20T01:41:35;3.60;;;3.30;;
17947;SDS011;9099;47.958;11.366;2023-08-20T01:44:03;3.95;;;3.10;;
17947;SDS011;9099;47.958;11.366;2023-08-20T01:46:30;4.40;;;3.70;;
17947;SDS011;9099;47.958;11.366;2023-08-20T01:48:57;3.65;;;3.17;;
17947;SDS011;9099;47.958;11.366;2023-08-20T01:51:24;4.03;;;3.00;;
17947;SDS011;9099;47.958;11.366;2023-08-20T01:53:51;3.30;;;3.05;;
17947;SDS011;9099;47.958;11.366;2023-08-20T01:56:18;4.57;;;3.17;;
17947;SDS011;9099;47.958;11.366;2023-08-20T01:58:44;4.25;;;3.15;;
17947;SDS011;9099;47.958;11.366;2023-08-20T02:01:13;6.50;;;3.30;;
17947;SDS011;9099;47.958;11.366;2023-08-20T02:03:39;4.22;;;3.20;;
17947;SDS011;9099;47.958;11.366;2023-08-20T02:06:06;3.20;;;2.90;;
17947;SDS011;9099;47.958;11.366;2023-08-20T02:08:33;4.10;;;3.00;;
17947;SDS011;9099;47.958;11.366;2023-08-20T02:11:00;3.80;;;2.88;;
17947;SDS011;9099;47.958;11.366;2023-08-20T02:13:27;5.05;;;3.30;;
17947;SDS011;9099;47.958;11.366;2023-08-20T02:15:57;4.07;;;3.20;;
17947;SDS011;9099;47.958;11.366;2023-08-20T02:18:27;3.30;;;2.80;;
17947;SDS011;9099;47.958;11.366;2023-08-20T02:20:54;4.45;;;3.17;;
17947;SDS011;9099;47.958;11.366;2023-08-20T02:23:21;4.72;;;3.38;;
17947;SDS011;9099;47.958;11.366;2023-08-20T02:25:48;3.72;;;3.20;;
17947;SDS011;9099;47.958;11.366;2023-08-20T02:28:14;3.97;;;3.47;;
17947;SDS011;9099;47.958;11.366;2023-08-20T02:30:42;3.95;;;3.50;;
17947;SDS011;9099;47.958;11.366;2023-08-20T02:33:10;3.92;;;3.50;;
17947;SDS011;9099;47.958;11.366;2023-08-20T02:35:38;3.88;;;3.30;;
17947;SDS011;9099;47.958;11.366;2023-08-20T02:38:05;3.70;;;3.40;;
17947;SDS011;9099;47.958;11.366;2023-08-20T02:40:38;4.57;;;3.10;;
17947;SDS011;9099;47.958;11.366;2023-08-20T02:43:05;6.30;;;3.30;;
17947;SDS011;9099;47.958;11.366;2023-08-20T02:45:32;3.13;;;2.90;;
17947;SDS011;9099;47.958;11.366;2023-08-20T02:47:59;3.95;;;3.15;;
17947;SDS011;9099;47.958;11.366;2023-08-20T02:50:26;4.93;;;3.60;;
17947;SDS011;9099;47.958;11.366;2023-08-20T02:52:54;3.75;;;3.35;;
17947;SDS011;9099;47.958;11.366;2023-08-20T02:55:21;4.15;;;3.03;;
17947;SDS011;9099;47.958;11.366;2023-08-20T02:57:48;4.28;;;3.30;;
17947;SDS011;9099;47.958;11.366;2023-08-20T03:00:15;3.30;;;2.80;;
17947;SDS011;9099;47.958;11.366;2023-08-20T03:02:42;3.35;;;3.05;;
17947;SDS011;9099;47.958;11.366;2023-08-20T03:05:09;4.15;;;3.05;;
17947;SDS011;9099;47.958;11.366;2023-08-20T03:07:36;3.72;;;3.25;;
17947;SDS011;9099;47.958;11.366;2023-08-20T03:10:05;5.00;;;3.17;;
17947;SDS011;9099;47.958;11.366;2023-08-20T03:12:32;4.40;;;3.08;;
17947;SDS011;9099;47.958;11.366;2023-08-20T03:14:59;4.22;;;3.20;;
17947;SDS011;9099;47.958;11.366;2023-08-20T03:17:26;4.63;;;3.00;;
17947;SDS011;9099;47.958;11.366;2023-08-20T03:19:53;3.88;;;2.90;;
17947;SDS011;9099;47.958;11.366;2023-08-20T03:22:21;3.95;;;3.22;;
17947;SDS011;9099;47.958;11.366;2023-08-20T03:24:48;2.97;;;2.78;;
17947;SDS011;9099;47.958;11.366;2023-08-20T03:27:17;6.93;;;3.58;;
17947;SDS011;9099;47.958;11.366;2023-08-20T03:29:44;3.35;;;3.00;;
17947;SDS011;9099;47.958;11.366;2023-08-20T03:32:11;3.70;;;3.00;;
17947;SDS011;9099;47.958;11.366;2023-08-20T03:34:38;4.10;;;3.03;;
17947;SDS011;9099;47.958;11.366;2023-08-20T03:37:05;3.35;;;3.15;;
17947;SDS011;9099;47.958;11.366;2023-08-20T03:39:32;4.75;;;3.30;;
17947;SDS011;9099;47.958;11.366;2023-08-20T03:41:59;6.57;;;3.40;;
17947;SDS011;9099;47.958;11.366;2023-08-20T03:44:27;4.70;;;3.35;;
17947;SDS011;9099;47.958;11.366;2023-08-20T03:46:54;3.70;;;2.78;;
17947;SDS011;9099;47.958;11.366;2023-08-20T03:49:21;3.20;;;3.00;;
17947;SDS011;9099;47.958;11.366;2023-08-20T03:51:48;3.60;;;3.30;;
17947;SDS011;9099;47.958;11.366;2023-08-20T03:54:15;3.67;;;3.10;;
17947;SDS011;9099;47.958;11.366;2023-08-20T03:56:42;3.72;;;3.00;;
17947;SDS011;9099;47.958;11.366;2023-08-20T04:01:44;5.80;;;3.30;;
17947;SDS011;9099;47.958;11.366;2023-08-20T04:04:11;4.22;;;3.30;;
17947;SDS011;9099;47.958;11.366;2023-08-20T04:06:38;3.17;;;2.88;;
17947;SDS011;9099;47.958;11.366;2023-08-20T04:09:05;3.75;;;3.10;;
17947;SDS011;9099;47.958;11.366;2023-08-20T04:11:34;3.35;;;3.05;;
17947;SDS011;9099;47.958;11.366;2023-08-20T04:14:00;3.28;;;2.97;;
17947;SDS011;9099;47.958;11.366;2023-08-20T04:16:28;4.60;;;3.00;;
17947;SDS011;9099;47.958;11.366;2023-08-20T04:18:57;3.90;;;3.13;;
17947;SDS011;9099;47.958;11.366;2023-08-20T04:21:24;4.47;;;3.35;;
17947;SDS011;9099;47.958;11.366;2023-08-20T04:23:51;4.70;;;3.03;;
17947;SDS011;9099;47.958;11.366;2023-08-20T04:26:18;3.78;;;3.30;;
17947;SDS011;9099;47.958;11.366;2023-08-20T04:28:45;4.97;;;3.17;;
17947;SDS011;9099;47.958;11.366;2023-08-20T04:31:12;3.78;;;3.22;;
17947;SDS011;9099;47.958;11.366;2023-08-20T04:33:39;4.30;;;3.20;;
17947;SDS011;9099;47.958;11.366;2023-08-20T04:36:07;4.80;;;3.58;;
17947;SDS011;9099;47.958;11.366;2023-08-20T04:38:34;4.65;;;3.30;;
17947;SDS011;9099;47.958;11.366;2023-08-20T04:41:00;6.75;;;3.35;;
17947;SDS011;9099;47.958;11.366;2023-08-20T04:43:27;3.75;;;3.42;;
17947;SDS011;9099;47.958;11.366;2023-08-20T04:45:54;3.67;;;3.30;;
17947;SDS011;9099;47.958;11.366;2023-08-20T04:48:21;3.55;;;3.08;;
17947;SDS011;9099;47.958;11.366;2023-08-20T04:50:48;4.50;;;3.03;;
17947;SDS011;9099;47.958;11.366;2023-08-20T04:53:16;4.70;;;3.83;;
17947;SDS011;9099;47.958;11.366;2023-08-20T04:55:43;4.78;;;3.45;;
17947;SDS011;9099;47.958;11.366;2023-08-20T04:58:10;4.00;;;3.20;;
17947;SDS011;9099;47.958;11.366;2023-08-20T05:00:37;3.50;;;3.20;;
17947;SDS011;9099;47.958;11.366;2023-08-20T05:03:04;3.70;;;3.30;;
17947;SDS011;9099;47.958;11.366;2023-08-20T05:05:31;3.97;;;3.58;;
17947;SDS011;9099;47.958;11.366;2023-08-20T05:07:57;3.75;;;3.42;;
17947;SDS011;9099;47.958;11.366;2023-08-20T05:10:26;3.35;;;3.05;;
17947;SDS011;9099;47.958;11.366;2023-08-20T05:12:52;4.35;;;3.22;;
17947;SDS011;9099;47.958;11.366;2023-08-20T05:15:19;2.83;;;2.63;;
17947;SDS011;9099;47.958;11.366;2023-08-20T05:17:47;3.45;;;3.15;;
17947;SDS011;9099;47.958;11.366;2023-08-20T05:20:14;4.38;;;3.22;;
17947;SDS011;9099;47.958;11.366;2023-08-20T05:22:41;4.72;;;3.33;;
17947;SDS011;9099;47.958;11.366;2023-08-20T05:25:08;4.43;;;3.55;;
17947;SDS011;9099;47.958;11.366;2023-08-20T05:27:36;3.83;;;3.20;;
17947;SDS011;9099;47.958;11.366;2023-08-20T05:30:03;3.53;;;3.20;;
17947;SDS011;9099;47.958;11.366;2023-08-20T05:32:31;3.95;;;2.72;;
17947;SDS011;9099;47.958;11.366;2023-08-20T05:34:58;3.78;;;3.25;;
17947;SDS011;9099;47.958;11.366;2023-08-20T05:37:25;3.42;;;2.70;;
17947;SDS011;9099;47.958;11.366;2023-08-20T05:39:51;3.60;;;3.03;;
17947;SDS011;9099;47.958;11.366;2023-08-20T05:42:18;5.60;;;3.17;;
17947;SDS011;9099;47.958;11.366;2023-08-20T05:44:46;5.05;;;3.33;;
17947;SDS011;9099;47.958;11.366;2023-08-20T05:47:13;6.15;;;3.40;;
17947;SDS011;9099;47.958;11.366;2023-08-20T05:49:40;3.13;;;2.83;;
17947;SDS011;9099;47.958;11.366;2023-08-20T05:52:07;5.75;;;3.55;;
17947;SDS011;9099;47.958;11.366;2023-08-20T05:54:34;5.57;;;3.17;;
17947;SDS011;9099;47.958;11.366;2023-08-20T05:57:01;3.40;;;3.13;;
17947;SDS011;9099;47.958;11.366;2023-08-20T05:59:28;4.78;;;3.63;;
17947;SDS011;9099;47.958;11.366;2023-08-20T06:01:56;4.82;;;3.20;;
17947;SDS011;9099;47.958;11.366;2023-08-20T06:04:23;3.58;;;3.28;;
17947;SDS011;9099;47.958;11.366;2023-08-20T06:06:50;5.57;;;3.33;;
17947;SDS011;9099;47.958;11.366;2023-08-20T06:09:16;5.75;;;3.40;;
17947;SDS011;9099;47.958;11.366;2023-08-20T06:11:44;3.85;;;3.00;;
17947;SDS011;9099;47.958;11.366;2023-08-20T06:14:11;4.35;;;3.17;;
17947;SDS011;9099;47.958;11.366;2023-08-20T06:16:38;4.43;;;3.15;;
17947;SDS011;9099;47.958;11.366;2023-08-20T06:19:06;6.32;;;3.10;;
17947;SDS011;9099;47.958;11.366;2023-08-20T06:21:33;3.35;;;3.00;;
17947;SDS011;9099;47.958;11.366;2023-08-20T06:24:00;3.15;;;2.85;;
17947;SDS011;9099;47.958;11.366;2023-08-20T06:26:28;3.08;;;2.85;;
17947;SDS011;9099;47.958;11.366;2023-08-20T06:28:55;3.70;;;3.30;;
17947;SDS011;9099;47.958;11.366;2023-08-20T06:31:21;4.13;;;3.28;;
17947;SDS011;9099;47.958;11.366;2023-08-20T06:33:48;3.42;;;3.17;;
17947;SDS011;9099;47.958;11.366;2023-08-20T06:36:16;5.20;;;3.28;;
17947;SDS011;9099;47.958;11.366;2023-08-20T06:38:43;4.85;;;3.58;;
17947;SDS011;9099;47.958;11.366;2023-08-20T06:41:10;4.57;;;3.22;;
17947;SDS011;9099;47.958;11.366;2023-08-20T06:43:37;6.60;;;3.50;;
17947;SDS011;9099;47.958;11.366;2023-08-20T06:46:04;3.70;;;3.40;;
17947;SDS011;9099;47.958;11.366;2023-08-20T06:48:30;3.78;;;3.40;;
17947;SDS011;9099;47.958;11.366;2023-08-20T06:50:57;3.67;;;3.45;;
17947;SDS011;9099;47.958;11.366;2023-08-20T06:53:26;4.18;;;3.50;;
17947;SDS011;9099;47.958;11.366;2023-08-20T06:55:52;4.28;;;3.55;;
17947;SDS011;9099;47.958;11.366;2023-08-20T06:58:19;5.45;;;3.45;;
17947;SDS011;9099;47.958;11.366;2023-08-20T07:00:46;4.28;;;3.72;;
17947;SDS011;9099;47.958;11.366;2023-08-20T07:03:14;3.92;;;3.58;;
17947;SDS011;9099;47.958;11.366;2023-08-20T07:05:41;3.20;;;3.00;;
17947;SDS011;9099;47.958;11.366;2023-08-20T07:08:09;5.05;;;3.72;;
17947;SDS011;9099;47.958;11.366;2023-08-20T07:10:37;4.32;;;3.60;;
17947;SDS011;9099;47.958;11.366;2023-08-20T07:13:04;5.18;;;3.55;;
17947;SDS011;9099;47.958;11.366;2023-08-20T07:15:30;4.28;;;3.95;;
17947;SDS011;9099;47.958;11.366;2023-08-20T07:17:57;5.18;;;3.78;;
17947;SDS011;9099;47.958;11.366;2023-08-20T07:20:24;4.10;;;3.70;;
17947;SDS011;9099;47.958;11.366;2023-08-20T07:22:51;5.65;;;3.55;;
17947;SDS011;9099;47.958;11.366;2023-08-20T07:25:18;4.88;;;3.30;;
17947;SDS011;9099;47.958;11.366;2023-08-20T07:27:46;4.50;;;3.60;;
17947;SDS011;9099;47.958;11.366;2023-08-20T07:30:13;6.05;;;3.50;;
17947;SDS011;9099;47.958;11.366;2023-08-20T07:32:40;6.00;;;3.78;;
17947;SDS011;9099;47.958;11.366;2023-08-20T07:35:07;4.55;;;3.60;;
17947;SDS011;9099;47.958;11.366;2023-08-20T07:37:35;3.92;;;3.40;;
17947;SDS011;9099;47.958;11.366;2023-08-20T07:40:02;7.07;;;3.65;;
17947;SDS011;9099;47.958;11.366;2023-08-20T07:42:29;4.63;;;3.40;;
17947;SDS011;9099;47.958;11.366;2023-08-20T07:44:57;4.90;;;3.30;;
17947;SDS011;9099;47.958;11.366;2023-08-20T07:47:24;4.82;;;3.63;;
17947;SDS011;9099;47.958;11.366;2023-08-20T07:49:51;4.55;;;3.70;;
17947;SDS011;9099;47.958;11.366;2023-08-20T07:52:17;3.88;;;3.58;;
17947;SDS011;9099;47.958;11.366;2023-08-20T07:54:44;5.05;;;3.83;;
17947;SDS011;9099;47.958;11.366;2023-08-20T07:57:11;4.70;;;3.70;;
17947;SDS011;9099;47.958;11.366;2023-08-20T07:59:38;4.03;;;3.50;;
17947;SDS011;9099;47.958;11.366;2023-08-20T08:02:06;4.90;;;3.63;;
17947;SDS011;9099;47.958;11.366;2023-08-20T08:04:33;3.97;;;3.20;;
17947;SDS011;9099;47.958;11.366;2023-08-20T08:07:01;5.05;;;3.33;;
17947;SDS011;9099;47.958;11.366;2023-08-20T08:09:29;4.65;;;3.45;;
17947;SDS011;9099;47.958;11.366;2023-08-20T08:11:57;4.57;;;3.78;;
17947;SDS011;9099;47.958;11.366;2023-08-20T08:14:25;3.25;;;2.95;;
17947;SDS011;9099;47.958;11.366;2023-08-20T08:16:52;3.97;;;3.17;;
17947;SDS011;9099;47.958;11.366;2023-08-20T08:19:20;3.50;;;3.20;;
17947;SDS011;9099;47.958;11.366;2023-08-20T08:21:47;3.70;;;3.40;;
17947;SDS011;9099;47.958;11.366;2023-08-20T08:24:15;3.50;;;3.20;;
17947;SDS011;9099;47.958;11.366;2023-08-20T08:26:41;5.38;;;3.53;;
17947;SDS011;9099;47.958;11.366;2023-08-20T08:29:08;4.78;;;3.60;;
17947;SDS011;9099;47.958;11.366;2023-08-20T08:31:35;5.88;;;3.95;;
17947;SDS011;9099;47.958;11.366;2023-08-20T08:34:02;4.50;;;3.45;;
17947;SDS011;9099;47.958;11.366;2023-08-20T08:36:31;3.30;;;3.00;;
17947;SDS011;9099;47.958;11.366;2023-08-20T08:38:58;3.30;;;3.10;;
17947;SDS011;9099;47.958;11.366;2023-08-20T08:41:25;6.53;;;3.55;;
17947;SDS011;9099;47.958;11.366;2023-08-20T08:43:53;4.10;;;3.10;;
17947;SDS011;9099;47.958;11.366;2023-08-20T08:46:22;4.45;;;3.67;;
17947;SDS011;9099;47.958;11.366;2023-08-20T08:48:50;3.53;;;3.13;;
17947;SDS011;9099;47.958;11.366;2023-08-20T08:51:18;4.18;;;3.35;;
17947;SDS011;9099;47.958;11.366;2023-08-20T08:53:46;5.75;;;3.50;;
17947;SDS011;9099;47.958;11.366;2023-08-20T08:56:13;5.03;;;3.70;;
17947;SDS011;9099;47.958;11.366;2023-08-20T08:58:40;4.40;;;3.20;;
17947;SDS011;9099;47.958;11.366;2023-08-20T09:01:07;5.80;;;3.20;;
17947;SDS011;9099;47.958;11.366;2023-08-20T09:03:34;3.63;;;3.00;;
17947;SDS011;9099;47.958;11.366;2023-08-20T09:06:01;3.72;;;2.72;;
17947;SDS011;9099;47.958;11.366;2023-08-20T09:08:33;6.28;;;3.17;;
17947;SDS011;9099;47.958;11.366;2023-08-20T09:11:02;4.88;;;3.20;;
17947;SDS011;9099;47.958;11.366;2023-08-20T09:13:32;5.60;;;3.85;;
17947;SDS011;9099;47.958;11.366;2023-08-20T09:16:03;4.45;;;3.15;;
17947;SDS011;9099;47.958;11.366;2023-08-20T09:18:30;3.70;;;3.33;;
17947;SDS011;9099;47.958;11.366;2023-08-20T09:20:58;3.70;;;3.15;;
17947;SDS011;9099;47.958;11.366;2023-08-20T09:23:26;6.10;;;3.40;;
17947;SDS011;9099;47.958;11.366;2023-08-20T09:25:54;3.70;;;3.40;;
17947;SDS011;9099;47.958;11.366;2023-08-20T09:28:22;5.43;;;3.45;;
17947;SDS011;9099;47.958;11.366;2023-08-20T09:30:56;3.58;;;3.20;;
17947;SDS011;9099;47.958;11.366;2023-08-20T09:33:23;3.50;;;3.20;;
17947;SDS011;9099;47.958;11.366;2023-08-20T09:35:50;3.42;;;3.22;;
17947;SDS011;9099;47.958;11.366;2023-08-20T09:38:18;3.40;;;3.10;;
17947;SDS011;9099;47.958;11.366;2023-08-20T09:40:47;4.60;;;3.55;;
17947;SDS011;9099;47.958;11.366;2023-08-20T09:43:17;3.63;;;3.33;;
17947;SDS011;9099;47.958;11.366;2023-08-20T09:45:46;3.15;;;2.85;;
17947;SDS011;9099;47.958;11.366;2023-08-20T09:48:16;4.32;;;3.00;;
17947;SDS011;9099;47.958;11.366;2023-08-20T09:50:46;3.38;;;3.13;;
17947;SDS011;9099;47.958;11.366;2023-08-20T09:53:16;4.35;;;3.30;;
17947;SDS011;9099;47.958;11.366;2023-08-20T09:55:48;5.38;;;3.28;;
17947;SDS011;9099;47.958;11.366;2023-08-20T09:58:18;3.65;;;3.35;;
17947;SDS011;9099;47.958;11.366;2023-08-20T10:00:51;3.63;;;3.33;;
17947;SDS011;9099;47.958;11.366;2023-08-20T10:03:19;4.45;;;3.60;;
17947;SDS011;9099;47.958;11.366;2023-08-20T10:05:48;4.57;;;3.72;;
17947;SDS011;9099;47.958;11.366;2023-08-20T10:08:16;4.43;;;3.30;;
17947;SDS011;9099;47.958;11.366;2023-08-20T10:10:43;3.65;;;3.35;;
17947;SDS011;9099;47.958;11.366;2023-08-20T10:13:12;3.75;;;3.40;;
17947;SDS011;9099;47.958;11.366;2023-08-20T10:15:40;4.35;;;3.50;;
17947;SDS011;9099;47.958;11.366;2023-08-20T10:18:08;4.30;;;3.90;;
17947;SDS011;9099;47.958;11.366;2023-08-20T10:20:38;3.92;;;3.47;;
17947;SDS011;9099;47.958;11.366;2023-08-20T10:23:06;7.22;;;3.50;;
17947;SDS011;9099;47.958;11.366;2023-08-20T10:25:39;3.50;;;3.20;;
17947;SDS011;9099;47.958;11.366;2023-08-20T10:28:13;6.07;;;3.28;;
17947;SDS011;9099;47.958;11.366;2023-08-20T10:31:06;4.72;;;3.45;;
17947;SDS011;9099;47.958;11.366;2023-08-20T10:33:35;3.55;;;3.03;;
17947;SDS011;9099;47.958;11.366;2023-08-20T10:36:07;3.53;;;3.30;;
17947;SDS011;9099;47.958;11.366;2023-08-20T10:38:37;3.35;;;3.10;;
17947;SDS011;9099;47.958;11.366;2023-08-20T10:41:08;3.65;;;3.28;;
17947;SDS011;9099;47.958;11.366;2023-08-20T10:43:36;4.15;;;3.30;;
17947;SDS011;9099;47.958;11.366;2023-08-20T10:46:14;3.67;;;3.38;;
17947;SDS011;9099;47.958;11.366;2023-08-20T10:48:43;3.88;;;3.50;;
17947;SDS011;9099;47.958;11.366;2023-08-20T10:51:14;3.65;;;3.42;;
17947;SDS011;9099;47.958;11.366;2023-08-20T10:53:42;3.55;;;3.35;;
17947;SDS011;9099;47.958;11.366;2023-08-20T10:56:14;3.97;;;3.38;;
17947;SDS011;9099;47.958;11.366;2023-08-20T10:58:42;3.58;;;3.25;;
17947;SDS011;9099;47.958;11.366;2023-08-20T11:01:14;3.88;;;3.40;;
17947;SDS011;9099;47.958;11.366;2023-08-20T11:03:43;3.25;;;3.00;;
17947;SDS011;9099;47.958;11.366;2023-08-20T11:06:11;3.47;;;3.17;;
17947;SDS011;9099;47.958;11.366;2023-08-20T11:08:38;3.50;;;3.20;;
17947;SDS011;9099;47.958;11.366;2023-08-20T11:11:05;3.58;;;3.10;;
17947;SDS011;9099;47.958;11.366;2023-08-20T11:13:32;3.97;;;3.20;;
17947;SDS011;9099;47.958;11.366;2023-08-20T11:15:59;3.20;;;3.00;;
17947;SDS011;9099;47.958;11.366;2023-08-20T11:18:28;3.60;;;3.10;;
17947;SDS011;9099;47.958;11.366;2023-08-20T11:20:57;4.45;;;3.20;;
17947;SDS011;9099;47.958;11.366;2023-08-20T11:23:24;3.67;;;2.50;;
17947;SDS011;9099;47.958;11.366;2023-08-20T11:25:51;3.53;;;2.70;;
17947;SDS011;9099;47.958;11.366;2023-08-20T11:28:18;4.25;;;2.70;;
17947;SDS011;9099;47.958;11.366;2023-08-20T11:30:46;3.78;;;2.88;;
17947;SDS011;9099;47.958;11.366;2023-08-20T11:33:13;3.30;;;3.00;;
17947;SDS011;9099;47.958;11.366;2023-08-20T11:35:41;3.15;;;2.80;;
17947;SDS011;9099;47.958;11.366;2023-08-20T11:38:10;3.13;;;2.50;;
17947;SDS011;9099;47.958;11.366;2023-08-20T11:40:38;3.38;;;2.75;;
17947;SDS011;9099;47.958;11.366;2023-08-20T11:43:04;4.97;;;3.00;;
17947;SDS011;9099;47.958;11.366;2023-08-20T11:45:32;4.38;;;2.58;;
17947;SDS011;9099;47.958;11.366;2023-08-20T11:48:09;3.67;;;2.90;;
17947;SDS011;9099;47.958;11.366;2023-08-20T11:50:36;5.28;;;2.83;;
17947;SDS011;9099;47.958;11.366;2023-08-20T11:53:03;3.85;;;2.70;;
17947;SDS011;9099;47.958;11.366;2023-08-20T11:55:31;4.50;;;2.45;;
17947;SDS011;9099;47.958;11.366;2023-08-20T11:57:58;3.85;;;2.80;;
17947;SDS011;9099;47.958;11.366;2023-08-20T12:00:25;3.75;;;2.50;;
17947;SDS011;9099;47.958;11.366;2023-08-20T12:02:53;2.85;;;2.53;;
17947;SDS011;9099;47.958;11.366;2023-08-20T12:05:21;3.40;;;2.65;;
17947;SDS011;9099;47.958;11.366;2023-08-20T12:07:56;2.97;;;2.78;;
17947;SDS011;9099;47.958;11.366;2023-08-20T12:10:24;3.47;;;2.58;;
17947;SDS011;9099;47.958;11.366;2023-08-20T12:12:53;3.15;;;2.70;;
17947;SDS011;9099;47.958;11.366;2023-08-20T12:15:21;2.70;;;2.50;;
17947;SDS011;9099;47.958;11.366;2023-08-20T12:17:58;3.40;;;2.60;;
17947;SDS011;9099;47.958;11.366;2023-08-20T12:20:27;4.65;;;2.50;;
17947;SDS011;9099;47.958;11.366;2023-08-20T12:22:57;3.55;;;2.70;;
17947;SDS011;9099;47.958;11.366;2023-08-20T12:25:26;2.85;;;2.47;;
17947;SDS011;9099;47.958;11.366;2023-08-20T12:27:54;3.13;;;2.50;;
17947;SDS011;9099;47.958;11.366;2023-08-20T12:30:21;4.13;;;2.70;;
17947;SDS011;9099;47.958;11.366;2023-08-20T12:32:48;3.45;;;2.55;;
17947;SDS011;9099;47.958;11.366;2023-08-20T12:35:15;3.30;;;2.70;;
17947;SDS011;9099;47.958;11.366;2023-08-20T12:37:42;2.83;;;2.55;;
17947;SDS011;9099;47.958;11.366;2023-08-20T12:40:09;2.85;;;2.45;;
17947;SDS011;9099;47.958;11.366;2023-08-20T12:42:37;3.63;;;2.83;;
17947;SDS011;9099;47.958;11.366;2023-08-20T12:45:06;3.17;;;2.70;;
17947;SDS011;9099;47.958;11.366;2023-08-20T12:47:35;2.80;;;2.45;;
17947;SDS011;9099;47.958;11.366;2023-08-20T12:50:02;2.80;;;2.60;;
17947;SDS011;9099;47.958;11.366;2023-08-20T12:52:29;3.38;;;2.60;;
17947;SDS011;9099;47.958;11.366;2023-08-20T12:54:56;3.97;;;2.40;;
17947;SDS011;9099;47.958;11.366;2023-08-20T12:57:23;2.88;;;2.55;;
17947;SDS011;9099;47.958;11.366;2023-08-20T12:59:50;3.70;;;2.65;;
17947;SDS011;9099;47.958;11.366;2023-08-20T13:02:19;2.90;;;2.70;;
17947;SDS011;9099;47.958;11.366;2023-08-20T13:04:46;2.95;;;2.75;;
17947;SDS011;9099;47.958;11.366;2023-08-20T13:07:15;3.08;;;2.60;;
17947;SDS011;9099;47.958;11.366;2023-08-20T13:09:42;3.72;;;2.75;;
17947;SDS011;9099;47.958;11.366;2023-08-20T13:12:10;3.22;;;2.67;;
17947;SDS011;9099;47.958;11.366;2023-08-20T13:14:38;3.97;;;2.60;;
17947;SDS011;9099;47.958;11.366;2023-08-20T13:17:07;3.58;;;2.90;;
17947;SDS011;9099;47.958;11.366;2023-08-20T13:19:36;3.72;;;2.60;;
17947;SDS011;9099;47.958;11.366;2023-08-20T13:22:03;3.75;;;2.50;;
17947;SDS011;9099;47.958;11.366;2023-08-20T13:24:30;2.65;;;2.42;;
17947;SDS011;9099;47.958;11.366;2023-08-20T13:26:57;3.10;;;2.70;;
17947;SDS011;9099;47.958;11.366;2023-08-20T13:29:24;2.72;;;2.53;;
17947;SDS011;9099;47.958;11.366;2023-08-20T13:31:51;3.30;;;2.60;;
17947;SDS011;9099;47.958;11.366;2023-08-20T13:34:18;3.75;;;2.60;;
17947;SDS011;9099;47.958;11.366;2023-08-20T13:36:46;3.70;;;2.67;;
17947;SDS011;9099;47.958;11.366;2023-08-20T13:39:13;4.30;;;3.10;;
17947;SDS011;9099;47.958;11.366;2023-08-20T13:41:40;3.80;;;2.60;;
17947;SDS011;9099;47.958;11.366;2023-08-20T13:44:07;5.22;;;2.90;;
17947;SDS011;9099;47.958;11.366;2023-08-20T13:46:34;3.67;;;2.78;;
17947;SDS011;9099;47.958;11.366;2023-08-20T13:49:00;3.10;;;2.80;;
17947;SDS011;9099;47.958;11.366;2023-08-20T13:51:28;4.32;;;2.78;;
17947;SDS011;9099;47.958;11.366;2023-08-20T13:53:57;6.05;;;2.50;;
17947;SDS011;9099;47.958;11.366;2023-08-20T13:56:24;2.95;;;2.75;;
17947;SDS011;9099;47.958;11.366;2023-08-20T13:58:51;3.97;;;2.42;;
17947;SDS011;9099;47.958;11.366;2023-08-20T14:01:18;2.60;;;2.40;;
17947;SDS011;9099;47.958;11.366;2023-08-20T14:03:45;4.07;;;2.58;;
17947;SDS011;9099;47.958;11.366;2023-08-20T14:06:12;2.50;;;2.40;;
17947;SDS011;9099;47.958;11.366;2023-08-20T14:08:39;4.50;;;2.85;;
17947;SDS011;9099;47.958;11.366;2023-08-20T14:11:07;3.08;;;2.60;;
17947;SDS011;9099;47.958;11.366;2023-08-20T14:13:34;2.80;;;2.60;;
17947;SDS011;9099;47.958;11.366;2023-08-20T14:16:01;2.53;;;2.33;;
17947;SDS011;9099;47.958;11.366;2023-08-20T14:18:28;2.72;;;2.47;;
17947;SDS011;9099;47.958;11.366;2023-08-20T14:20:55;3.65;;;2.72;;
17947;SDS011;9099;47.958;11.366;2023-08-20T14:23:23;3.78;;;2.55;;
17947;SDS011;9099;47.958;11.366;2023-08-20T14:25:49;3.20;;;2.88;;
17947;SDS011;9099;47.958;11.366;2023-08-20T14:28:20;2.97;;;2.53;;
17947;SDS011;9099;47.958;11.366;2023-08-20T14:30:47;6.25;;;2.38;;
17947;SDS011;9099;47.958;11.366;2023-08-20T14:33:15;3.78;;;2.83;;
17947;SDS011;9099;47.958;11.366;2023-08-20T14:35:42;3.17;;;2.95;;
17947;SDS011;9099;47.958;11.366;2023-08-20T14:38:10;2.70;;;2.50;;
17947;SDS011;9099;47.958;11.366;2023-08-20T14:40:37;4.07;;;2.70;;
17947;SDS011;9099;47.958;11.366;2023-08-20T14:43:06;2.85;;;2.58;;
17947;SDS011;9099;47.958;11.366;2023-08-20T14:45:34;3.08;;;2.78;;
17947;SDS011;9099;47.958;11.366;2023-08-20T14:48:01;3.03;;;2.70;;
17947;SDS011;9099;47.958;11.366;2023-08-20T14:50:28;2.58;;;2.38;;
17947;SDS011;9099;47.958;11.366;2023-08-20T14:52:55;3.70;;;2.50;;
17947;SDS011;9099;47.958;11.366;2023-08-20T14:55:21;3.05;;;2.60;;
17947;SDS011;9099;47.958;11.366;2023-08-20T14:57:48;3.17;;;2.38;;
17947;SDS011;9099;47.958;11.366;2023-08-20T15:00:15;2.97;;;2.78;;